createdAt,value
2018-02-23T00:00:54.096Z,66.50
2018-02-23T00:03:20.411Z,66.30
2018-02-23T00:05:46.718Z,66.10
2018-02-23T00:08:12.991Z,66.00
2018-02-23T00:10:39.267Z,66.50
2018-02-23T00:13:05.620Z,66.10
2018-02-23T00:15:31.934Z,66.00
2018-02-23T00:17:58.246Z,66.60
2018-02-23T00:20:24.568Z,67.10
2018-02-23T00:22:50.818Z,66.60
2018-02-23T00:25:17.007Z,66.60
2018-02-23T00:27:43.236Z,66.50
2018-02-23T00:30:09.453Z,66.50
2018-02-23T00:32:35.734Z,66.10
2018-02-23T00:35:01.983Z,66.70
2018-02-23T00:37:28.236Z,66.80
2018-02-23T00:39:54.462Z,67.30
2018-02-23T00:42:20.784Z,67.10
2018-02-23T00:44:46.979Z,67.00
2018-02-23T00:47:13.234Z,66.20
2018-02-23T00:49:39.429Z,65.90
2018-02-23T00:52:05.656Z,66.00
2018-02-23T00:54:31.958Z,65.70
2018-02-23T00:56:58.183Z,65.80
2018-02-23T00:59:24.362Z,65.70
2018-02-23T01:01:50.651Z,65.40
2018-02-23T01:04:16.865Z,66.30
2018-02-23T01:06:43.103Z,66.60
2018-02-23T01:09:09.577Z,66.50
2018-02-23T01:11:35.930Z,65.90
2018-02-23T01:14:02.138Z,65.90
2018-02-23T01:16:28.400Z,66.20
2018-02-23T01:18:54.615Z,66.10
2018-02-23T01:21:20.863Z,66.30
2018-02-23T01:23:47.087Z,66.20
2018-02-23T01:26:13.332Z,66.80
2018-02-23T01:28:39.599Z,66.50
2018-02-23T01:31:06.129Z,66.60
2018-02-23T01:33:32.361Z,66.60
2018-02-23T01:35:58.555Z,67.40
2018-02-23T01:38:24.781Z,67.60
2018-02-23T01:40:50.996Z,67.50
2018-02-23T01:43:17.583Z,67.10
2018-02-23T01:45:43.861Z,67.10
2018-02-23T01:48:10.251Z,67.50
2018-02-23T01:50:48.667Z,67.10
2018-02-23T01:53:15.054Z,66.80
2018-02-23T01:55:41.340Z,67.20
2018-02-23T01:58:07.853Z,67.40
2018-02-23T02:00:34.058Z,67.20
2018-02-23T02:03:00.300Z,67.00
2018-02-23T02:05:26.610Z,67.30
2018-02-23T02:07:52.838Z,67.40
2018-02-23T02:10:19.049Z,67.20
2018-02-23T02:12:45.640Z,66.70
2018-02-23T02:15:11.860Z,66.70
2018-02-23T02:17:38.033Z,66.50
2018-02-23T02:20:04.333Z,66.00
2018-02-23T02:22:30.572Z,66.10
2018-02-23T02:24:56.827Z,65.60
2018-02-23T02:27:23.425Z,66.00
2018-02-23T02:29:49.613Z,66.00
2018-02-23T02:32:15.850Z,66.50
2018-02-23T02:34:42.463Z,66.30
2018-02-23T02:37:08.672Z,66.60
2018-02-23T02:39:34.933Z,66.40
2018-02-23T02:42:01.190Z,65.50
2018-02-23T02:44:27.451Z,65.40
2018-02-23T02:46:54.011Z,65.40
2018-02-23T02:49:20.237Z,65.40
2018-02-23T02:51:46.415Z,64.90
2018-02-23T02:54:12.696Z,64.30
2018-02-23T02:56:38.948Z,63.40
2018-02-23T02:59:05.156Z,63.40
2018-02-23T03:01:31.394Z,64.10
2018-02-23T03:03:57.629Z,64.30
2018-02-23T03:06:23.836Z,63.90
2018-02-23T03:08:50.041Z,63.90
2018-02-23T03:11:16.619Z,64.20
2018-02-23T03:13:42.885Z,64.30
2018-02-23T03:16:09.076Z,64.10
2018-02-23T03:18:35.274Z,63.90
2018-02-23T03:21:01.835Z,63.10
2018-02-23T03:23:28.044Z,63.10
2018-02-23T03:25:54.273Z,62.90
2018-02-23T03:28:20.447Z,63.30
2018-02-23T03:30:46.937Z,62.70
2018-02-23T03:33:13.145Z,63.70
2018-02-23T03:35:39.705Z,63.50
2018-02-23T03:38:05.919Z,63.50
2018-02-23T03:40:32.604Z,63.50
2018-02-23T03:42:58.787Z,63.50
2018-02-23T03:45:25.049Z,63.00
2018-02-23T03:47:51.250Z,63.20
2018-02-23T03:50:17.456Z,63.10
2018-02-23T03:52:44.036Z,63.70
2018-02-23T03:55:10.217Z,63.70
2018-02-23T03:57:36.433Z,63.30
2018-02-23T04:00:02.705Z,63.90
2018-02-23T04:02:28.972Z,63.50
2018-02-23T04:04:55.181Z,63.10
2018-02-23T04:07:21.424Z,62.90
2018-02-23T04:09:48.405Z,63.30
2018-02-23T04:12:15.008Z,63.30
2018-02-23T04:14:41.233Z,63.30
2018-02-23T04:17:07.464Z,62.90
2018-02-23T04:19:33.697Z,63.30
2018-02-23T04:21:59.936Z,63.20
2018-02-23T04:24:26.193Z,63.10
2018-02-23T04:26:52.405Z,63.10
2018-02-23T04:29:18.668Z,63.10
2018-02-23T04:31:44.862Z,63.90
2018-02-23T04:34:11.370Z,63.50
2018-02-23T04:36:37.567Z,63.60
2018-02-23T04:39:03.795Z,63.80
2018-02-23T04:41:30.055Z,62.80
2018-02-23T04:43:56.270Z,63.20
2018-02-23T04:46:22.532Z,62.70
2018-02-23T04:48:49.106Z,63.30
2018-02-23T04:51:15.339Z,63.30
2018-02-23T04:53:42.575Z,63.60
2018-02-23T04:56:08.797Z,64.00
2018-02-23T04:58:34.987Z,63.90
2018-02-23T05:01:01.236Z,63.40
2018-02-23T05:03:27.422Z,64.00
2018-02-23T05:05:53.672Z,64.50
2018-02-23T05:08:19.970Z,64.40
2018-02-23T05:10:46.225Z,63.70
2018-02-23T05:13:12.519Z,65.10
2018-02-23T05:15:38.811Z,65.00
2018-02-23T05:18:05.079Z,64.80
2018-02-23T05:20:31.297Z,63.80
2018-02-23T05:22:57.639Z,63.90
2018-02-23T05:25:23.845Z,64.10
2018-02-23T05:27:50.476Z,64.30
2018-02-23T05:30:16.696Z,64.30
2018-02-23T05:32:42.916Z,64.20
2018-02-23T05:35:09.537Z,64.00
2018-02-23T05:37:35.741Z,64.00
2018-02-23T05:40:01.984Z,64.20
2018-02-23T05:42:28.211Z,64.10
2018-02-23T05:44:54.523Z,64.20
2018-02-23T05:47:20.838Z,64.50
2018-02-23T05:49:47.423Z,64.70
2018-02-23T05:52:13.686Z,64.90
2018-02-23T05:54:39.929Z,64.60
2018-02-23T05:57:06.185Z,64.70
2018-02-23T05:59:32.384Z,64.50
2018-02-23T06:01:58.605Z,64.20
2018-02-23T06:04:24.833Z,64.60
2018-02-23T06:06:51.109Z,65.20
2018-02-23T06:09:17.298Z,64.80
2018-02-23T06:11:43.568Z,64.40
2018-02-23T06:14:09.866Z,64.20
2018-02-23T06:16:36.166Z,63.90
2018-02-23T06:19:02.389Z,63.50
2018-02-23T06:21:28.960Z,63.70
2018-02-23T06:23:55.213Z,63.70
2018-02-23T06:26:21.420Z,64.00
2018-02-23T06:28:47.681Z,63.30
2018-02-23T06:31:13.880Z,65.20
2018-02-23T06:33:40.131Z,64.40
2018-02-23T06:36:06.433Z,64.10
2018-02-23T06:38:32.653Z,64.00
2018-02-23T06:40:58.874Z,64.60
2018-02-23T06:43:25.453Z,64.90
2018-02-23T06:45:51.778Z,64.60
2018-02-23T06:48:19.673Z,63.90
2018-02-23T06:50:46.147Z,64.10
2018-02-23T06:53:12.834Z,63.90
2018-02-23T06:55:39.435Z,64.80
2018-02-23T06:58:05.647Z,64.80
2018-02-23T07:00:32.152Z,64.20
2018-02-23T07:02:59.073Z,65.10
2018-02-23T07:05:25.114Z,65.10
2018-02-23T07:07:51.387Z,64.60
2018-02-23T07:10:17.608Z,64.60
2018-02-23T07:12:43.860Z,64.80
2018-02-23T07:15:10.067Z,64.80
2018-02-23T07:17:36.351Z,64.60
2018-02-23T07:20:03.067Z,64.20
2018-02-23T07:22:29.277Z,64.20
2018-02-23T07:24:55.470Z,63.90
2018-02-23T07:27:21.750Z,64.30
2018-02-23T07:29:47.946Z,64.30
2018-02-23T07:32:14.147Z,65.10
2018-02-23T07:34:40.422Z,63.90
2018-02-23T07:37:06.700Z,64.20
2018-02-23T07:39:32.965Z,63.70
2018-02-23T07:41:59.222Z,63.90
2018-02-23T07:44:25.475Z,63.60
2018-02-23T07:46:52.165Z,63.70
2018-02-23T07:49:18.448Z,63.70
2018-02-23T07:51:44.733Z,63.80
2018-02-23T07:54:10.948Z,64.20
2018-02-23T07:56:37.211Z,64.20
2018-02-23T07:59:03.518Z,64.30
2018-02-23T08:01:29.693Z,63.80
2018-02-23T08:03:56.272Z,63.00
2018-02-23T08:06:22.487Z,63.00
2018-02-23T08:08:48.705Z,65.00
2018-02-23T08:11:14.923Z,65.10
2018-02-23T08:13:41.192Z,65.00
2018-02-23T08:16:07.512Z,64.00
2018-02-23T08:18:33.742Z,63.90
2018-02-23T08:20:59.979Z,64.10
2018-02-23T08:23:26.252Z,63.70
2018-02-23T08:25:52.550Z,64.40
2018-02-23T08:28:18.770Z,63.40
2018-02-23T08:30:45.028Z,63.90
2018-02-23T08:33:11.690Z,63.80
2018-02-23T08:35:37.898Z,63.80
2018-02-23T08:38:04.812Z,63.40
2018-02-23T08:40:31.027Z,63.40
2018-02-23T08:42:57.221Z,63.30
2018-02-23T08:45:23.496Z,63.90
2018-02-23T08:47:49.758Z,63.60
2018-02-23T08:50:16.378Z,63.40
2018-02-23T08:52:42.592Z,63.40
2018-02-23T08:55:08.869Z,64.50
2018-02-23T08:57:35.118Z,64.00
2018-02-23T09:00:01.482Z,63.80
2018-02-23T09:02:27.722Z,64.40
2018-02-23T09:04:54.010Z,63.80
2018-02-23T09:07:20.305Z,63.90
2018-02-23T09:09:46.556Z,63.40
2018-02-23T09:12:12.798Z,63.80
2018-02-23T09:14:39.050Z,63.30
2018-02-23T09:17:05.262Z,63.60
2018-02-23T09:19:31.479Z,63.40
2018-02-23T09:21:58.000Z,62.70
2018-02-23T09:24:24.208Z,64.10
2018-02-23T09:26:50.462Z,64.70
2018-02-23T09:29:16.661Z,64.10
2018-02-23T09:31:43.326Z,65.30
2018-02-23T09:34:21.874Z,65.30
2018-02-23T09:36:48.127Z,64.20
2018-02-23T09:39:14.412Z,63.50
2018-02-23T09:41:40.651Z,64.10
2018-02-23T09:44:06.884Z,63.60
2018-02-23T09:46:33.115Z,63.40
2018-02-23T09:48:59.312Z,62.70
2018-02-23T09:51:25.503Z,63.50
2018-02-23T09:53:52.425Z,62.70
2018-02-23T09:56:18.650Z,62.70
2018-02-23T09:58:44.869Z,62.30
2018-02-23T10:01:11.172Z,62.70
2018-02-23T10:03:37.413Z,62.50
2018-02-23T10:06:03.666Z,62.10
2018-02-23T10:08:29.893Z,61.80
2018-02-23T10:10:56.179Z,62.10
2018-02-23T10:13:22.860Z,62.60
2018-02-23T10:15:49.092Z,62.80
2018-02-23T10:18:15.277Z,63.00
2018-02-23T10:20:41.603Z,62.80
2018-02-23T10:23:07.797Z,63.00
2018-02-23T10:25:34.482Z,62.70
2018-02-23T10:28:00.763Z,62.70
2018-02-23T10:30:27.359Z,61.70
2018-02-23T10:32:53.591Z,61.70
2018-02-23T10:35:19.855Z,61.90
2018-02-23T10:37:46.427Z,61.20
2018-02-23T10:40:14.497Z,61.20
2018-02-23T10:42:40.769Z,61.30
2018-02-23T10:45:07.020Z,62.60
2018-02-23T10:47:33.237Z,62.70
2018-02-23T10:49:59.508Z,62.40
2018-02-23T10:52:25.707Z,61.80
2018-02-23T10:54:51.985Z,62.20
2018-02-23T10:57:18.276Z,61.80
2018-02-23T10:59:44.943Z,62.10
2018-02-23T11:02:11.231Z,62.10
2018-02-23T11:04:37.528Z,61.80
2018-02-23T11:07:03.778Z,62.00
2018-02-23T11:09:30.354Z,62.20
2018-02-23T11:11:56.541Z,62.20
2018-02-23T11:14:22.820Z,61.90
2018-02-23T11:16:49.008Z,61.90
2018-02-23T11:19:15.304Z,62.50
2018-02-23T11:21:41.536Z,62.70
2018-02-23T11:24:07.834Z,62.90
2018-02-23T11:26:34.150Z,62.40
2018-02-23T11:29:00.377Z,62.70
2018-02-23T11:31:26.662Z,63.00
2018-02-23T11:33:52.920Z,62.30
2018-02-23T11:36:19.549Z,62.00
2018-02-23T11:38:46.133Z,62.30
2018-02-23T11:41:13.390Z,62.30
2018-02-23T11:43:39.639Z,62.00
2018-02-23T11:46:05.843Z,62.50
2018-02-23T11:48:32.131Z,63.10
2018-02-23T11:50:58.744Z,62.10
2018-02-23T11:53:25.027Z,62.10
2018-02-23T11:55:51.272Z,61.90
2018-02-23T11:58:17.461Z,62.50
2018-02-23T12:00:43.704Z,61.60
2018-02-23T12:03:09.953Z,62.40
2018-02-23T12:05:36.223Z,62.50
2018-02-23T12:08:02.932Z,61.90
2018-02-23T12:10:29.180Z,61.90
2018-02-23T12:12:55.480Z,62.00
2018-02-23T12:15:22.694Z,61.90
2018-02-23T12:17:48.866Z,61.70
2018-02-23T12:20:15.203Z,61.60
2018-02-23T12:22:41.444Z,61.30
2018-02-23T12:25:08.081Z,60.60
2018-02-23T12:27:34.300Z,60.60
2018-02-23T12:30:00.552Z,61.00
2018-02-23T12:32:27.160Z,61.20
2018-02-23T12:34:53.380Z,61.30
2018-02-23T12:37:19.624Z,61.30
2018-02-23T12:39:45.885Z,61.20
2018-02-23T12:42:12.559Z,61.00
2018-02-23T12:44:38.858Z,61.00
2018-02-23T12:47:05.085Z,61.00
2018-02-23T12:49:31.298Z,60.70
2018-02-23T12:51:57.534Z,61.10
2018-02-23T12:54:23.805Z,61.50
2018-02-23T12:56:50.021Z,61.30
2018-02-23T12:59:16.263Z,61.30
2018-02-23T13:01:42.647Z,61.30
2018-02-23T13:04:08.841Z,60.90
2018-02-23T13:06:35.151Z,61.50
2018-02-23T13:09:01.417Z,60.90
2018-02-23T13:11:27.733Z,61.40
2018-02-23T13:13:55.752Z,60.90
2018-02-23T13:16:22.019Z,61.10
2018-02-23T13:18:48.269Z,61.70
2018-02-23T13:21:14.619Z,61.90
2018-02-23T13:23:41.211Z,61.50
2018-02-23T13:26:07.518Z,61.50
2018-02-23T13:28:36.166Z,61.10
2018-02-23T13:31:02.792Z,60.70
2018-02-23T13:33:29.691Z,60.80
2018-02-23T13:35:56.010Z,61.10
2018-02-23T13:38:22.275Z,60.50
2018-02-23T13:40:54.583Z,60.60
2018-02-23T13:43:20.850Z,61.20
2018-02-23T13:45:47.167Z,60.60
2018-02-23T13:48:19.970Z,60.70
2018-02-23T13:50:49.648Z,62.10
2018-02-23T13:53:15.983Z,62.10
2018-02-23T13:55:42.471Z,62.30
2018-02-23T13:58:13.019Z,62.20
2018-02-23T14:00:40.664Z,62.10
2018-02-23T14:03:06.954Z,62.40
2018-02-23T14:05:35.045Z,61.60
2018-02-23T14:08:01.418Z,61.70
2018-02-23T14:10:27.689Z,61.50
2018-02-23T14:12:53.975Z,62.10
2018-02-23T14:15:20.681Z,61.50
2018-02-23T14:17:47.312Z,61.50
2018-02-23T14:20:13.678Z,62.10
2018-02-23T14:22:40.401Z,61.50
2018-02-23T14:25:07.019Z,61.30
2018-02-23T14:27:33.524Z,61.20
2018-02-23T14:29:59.819Z,61.30
2018-02-23T14:32:26.448Z,61.20
2018-02-23T14:34:52.864Z,61.90
2018-02-23T14:37:19.191Z,62.50
2018-02-23T14:39:45.880Z,62.00
2018-02-23T14:42:13.856Z,62.00
2018-02-23T14:44:40.217Z,61.60
2018-02-23T14:47:06.522Z,61.70
2018-02-23T14:49:32.861Z,62.00
2018-02-23T14:51:59.210Z,61.60
2018-02-23T14:54:25.651Z,61.70
2018-02-23T14:56:52.022Z,62.20
2018-02-23T14:59:18.669Z,61.60
2018-02-23T15:01:45.388Z,61.50
2018-02-23T15:04:12.908Z,61.50
2018-02-23T15:06:39.239Z,61.90
2018-02-23T15:09:05.614Z,62.60
2018-02-23T15:11:31.903Z,62.60
2018-02-23T15:13:58.230Z,62.20
2018-02-23T15:16:24.556Z,61.80
2018-02-23T15:18:51.230Z,62.10
2018-02-23T15:21:18.088Z,62.10
2018-02-23T15:23:44.398Z,62.30
2018-02-23T15:26:10.698Z,62.20
2018-02-23T15:28:37.095Z,62.80
2018-02-23T15:31:15.663Z,62.90
2018-02-23T15:33:43.412Z,62.30
2018-02-23T15:36:10.023Z,62.30
2018-02-23T15:38:36.352Z,62.20
2018-02-23T15:41:02.685Z,62.60
2018-02-23T15:43:29.297Z,62.40
2018-02-23T15:45:55.582Z,62.10
2018-02-23T15:48:27.920Z,62.00
2018-02-23T15:50:57.452Z,62.40
2018-02-23T15:53:23.781Z,62.40
2018-02-23T15:55:50.136Z,62.60
2018-02-23T15:58:31.348Z,62.80
2018-02-23T16:00:57.771Z,62.80
2018-02-23T16:03:24.116Z,62.90
2018-02-23T16:05:50.411Z,62.50
2018-02-23T16:08:16.775Z,62.40
2018-02-23T16:10:43.191Z,62.80
2018-02-23T16:13:09.578Z,62.90
2018-02-23T16:15:35.869Z,62.70
2018-02-23T16:18:02.216Z,62.80
2018-02-23T16:20:28.492Z,62.60
2018-02-23T16:22:54.793Z,62.30
2018-02-23T16:25:21.094Z,62.80
2018-02-23T16:27:47.406Z,62.60
2018-02-23T16:30:14.373Z,62.40
2018-02-23T16:32:41.059Z,62.30
2018-02-23T16:35:07.366Z,62.20
2018-02-23T16:37:33.709Z,62.60
2018-02-23T16:39:59.975Z,63.20
2018-02-23T16:42:28.006Z,62.60
2018-02-23T16:44:54.311Z,62.60
2018-02-23T16:47:20.616Z,62.60
2018-02-23T16:49:46.912Z,62.60
2018-02-23T16:52:14.020Z,63.20
2018-02-23T16:54:40.290Z,64.20
2018-02-23T16:57:07.016Z,64.60
2018-02-23T16:59:33.305Z,64.60
2018-02-23T17:01:59.577Z,63.80
2018-02-23T17:04:26.371Z,63.70
2018-02-23T17:06:52.671Z,63.50
2018-02-23T17:09:18.915Z,63.80
2018-02-23T17:11:45.167Z,63.30
2018-02-23T17:14:13.050Z,63.90
2018-02-23T17:16:39.304Z,63.80
2018-02-23T17:19:05.586Z,64.00
2018-02-23T17:21:31.910Z,62.60
2018-02-23T17:23:58.193Z,63.00
2018-02-23T17:26:25.216Z,62.90
2018-02-23T17:28:51.502Z,63.90
2018-02-23T17:31:17.771Z,63.70
2018-02-23T17:33:44.041Z,63.90
2018-02-23T17:36:10.354Z,64.50
2018-02-23T17:38:37.044Z,63.90
2018-02-23T17:41:03.411Z,63.90
2018-02-23T17:43:29.696Z,64.00
2018-02-23T17:45:55.963Z,63.30
2018-02-23T17:48:22.289Z,63.20
2018-02-23T17:50:48.599Z,63.60
2018-02-23T17:53:16.296Z,63.60
2018-02-23T17:55:43.154Z,63.60
2018-02-23T17:58:09.750Z,63.20
2018-02-23T18:00:36.037Z,63.10
2018-02-23T18:03:02.276Z,62.70
2018-02-23T18:05:28.581Z,63.60
2018-02-23T18:07:54.886Z,63.20
2018-02-23T18:10:21.517Z,63.10
2018-02-23T18:12:47.872Z,63.10
2018-02-23T18:15:14.124Z,63.60
2018-02-23T18:17:40.373Z,63.30
2018-02-23T18:20:07.183Z,62.90
2018-02-23T18:22:33.801Z,63.20
2018-02-23T18:25:00.056Z,63.20
2018-02-23T18:27:26.333Z,62.70
2018-02-23T18:29:52.637Z,63.10
2018-02-23T18:32:19.290Z,62.70
2018-02-23T18:34:45.944Z,63.50
2018-02-23T18:37:13.291Z,63.50
2018-02-23T18:39:39.999Z,63.40
2018-02-23T18:42:06.295Z,63.30
2018-02-23T18:44:32.638Z,63.40
2018-02-23T18:46:58.919Z,63.10
2018-02-23T18:49:25.259Z,63.20
2018-02-23T18:51:51.618Z,62.80
2018-02-23T18:54:18.222Z,62.80
2018-02-23T18:56:44.590Z,62.80
2018-02-23T18:59:12.729Z,62.70
2018-02-23T19:01:38.985Z,62.70
2018-02-23T19:04:05.312Z,62.50
2018-02-23T19:06:31.616Z,62.90
2018-02-23T19:08:57.921Z,63.20
2018-02-23T19:11:24.620Z,63.00
2018-02-23T19:13:50.937Z,63.00
2018-02-23T19:16:17.259Z,63.10
2018-02-23T19:18:43.651Z,62.70
2018-02-23T19:21:10.013Z,62.50
2018-02-23T19:23:36.637Z,62.40
2018-02-23T19:26:02.992Z,62.40
2018-02-23T19:28:29.712Z,63.00
2018-02-23T19:30:56.006Z,63.00
2018-02-23T19:33:22.337Z,63.10
2018-02-23T19:35:48.641Z,64.00
2018-02-23T19:38:14.894Z,63.30
2018-02-23T19:40:41.189Z,63.20
2018-02-23T19:43:07.469Z,62.80
2018-02-23T19:45:33.831Z,62.70
2018-02-23T19:48:00.056Z,61.90
2018-02-23T19:50:26.386Z,62.50
2018-02-23T19:52:52.747Z,62.70
2018-02-23T19:55:19.083Z,62.60
2018-02-23T19:57:45.456Z,62.60
2018-02-23T20:00:11.741Z,62.40
2018-02-23T20:02:38.044Z,62.20
2018-02-23T20:05:04.865Z,62.50
2018-02-23T20:07:31.242Z,62.50
2018-02-23T20:09:57.537Z,62.10
2018-02-23T20:12:23.938Z,62.60
2018-02-23T20:14:50.419Z,62.20
2018-02-23T20:17:16.663Z,62.30
2018-02-23T20:19:43.526Z,62.20
2018-02-23T20:22:09.831Z,62.70
2018-02-23T20:24:36.143Z,62.70
2018-02-23T20:27:02.501Z,62.40
2018-02-23T20:29:28.766Z,63.10
2018-02-23T20:31:55.023Z,62.50
2018-02-23T20:34:21.411Z,62.20
2018-02-23T20:36:47.770Z,62.80
2018-02-23T20:39:15.487Z,62.00
2018-02-23T20:41:41.867Z,62.00
2018-02-23T20:44:08.617Z,63.20
2018-02-23T20:46:35.301Z,62.60
2018-02-23T20:49:01.629Z,62.60
2018-02-23T20:51:28.011Z,63.20
2018-02-23T20:53:54.325Z,62.30
2018-02-23T20:56:20.660Z,62.10
2018-02-23T20:58:46.952Z,62.40
2018-02-23T21:01:14.735Z,62.60
2018-02-23T21:03:40.991Z,62.60
2018-02-23T21:06:07.340Z,62.80
2018-02-23T21:08:33.605Z,62.80
2018-02-23T21:10:59.872Z,62.90
2018-02-23T21:13:26.187Z,62.60
2018-02-23T21:15:52.478Z,63.00
2018-02-23T21:18:18.768Z,63.10
2018-02-23T21:20:45.160Z,63.50
2018-02-23T21:23:11.440Z,62.70
2018-02-23T21:25:37.756Z,63.20
2018-02-23T21:28:04.085Z,63.50
2018-02-23T21:30:30.387Z,62.70
2018-02-23T21:32:56.676Z,63.30
2018-02-23T21:35:23.061Z,63.70
2018-02-23T21:37:49.353Z,63.20
2018-02-23T21:40:15.675Z,63.50
2018-02-23T21:42:41.965Z,63.80
2018-02-23T21:45:08.244Z,64.20
2018-02-23T21:47:34.570Z,63.50
2018-02-23T21:50:01.146Z,63.70
2018-02-23T21:52:27.797Z,63.80
2018-02-23T21:54:54.120Z,63.80
2018-02-23T21:57:20.775Z,64.80
2018-02-23T21:59:47.433Z,64.20
2018-02-23T22:02:14.601Z,64.20
2018-02-23T22:04:41.205Z,63.90
2018-02-23T22:07:07.437Z,64.10
2018-02-23T22:09:33.771Z,63.80
2018-02-23T22:12:00.071Z,63.90
2018-02-23T22:14:26.485Z,63.90
2018-02-23T22:16:52.733Z,64.00
2018-02-23T22:19:18.989Z,64.30
2018-02-23T22:21:45.384Z,64.10
2018-02-23T22:24:11.659Z,64.00
2018-02-23T22:26:37.904Z,64.30
2018-02-23T22:29:04.464Z,64.90
2018-02-23T22:31:30.721Z,64.60
2018-02-23T22:33:56.981Z,64.80
2018-02-23T22:36:23.340Z,64.80
2018-02-23T22:38:49.576Z,64.60
2018-02-23T22:41:15.880Z,64.20
2018-02-23T22:43:42.179Z,64.60
2018-02-23T22:46:08.419Z,64.40
2018-02-23T22:48:34.700Z,64.50
2018-02-23T22:51:00.991Z,63.80
2018-02-23T22:53:27.263Z,64.40
2018-02-23T22:55:53.553Z,64.40
2018-02-23T22:58:19.866Z,64.90
2018-02-23T23:00:46.137Z,64.40
2018-02-23T23:03:13.248Z,64.40
2018-02-23T23:05:39.494Z,64.40
2018-02-23T23:08:05.736Z,65.20
2018-02-23T23:10:31.993Z,64.80
2018-02-23T23:12:58.321Z,64.60
2018-02-23T23:15:25.042Z,65.30
2018-02-23T23:17:51.377Z,65.20
2018-02-23T23:20:17.726Z,65.70
2018-02-23T23:22:44.033Z,66.10
2018-02-23T23:25:10.401Z,65.50
2018-02-23T23:27:36.659Z,65.00
2018-02-23T23:30:03.547Z,64.40
2018-02-23T23:32:30.136Z,64.50
2018-02-23T23:34:56.568Z,64.40
2018-02-23T23:37:22.909Z,64.40
2018-02-23T23:39:49.176Z,64.80
2018-02-23T23:42:16.045Z,64.10
2018-02-23T23:44:42.321Z,64.50
2018-02-23T23:47:08.641Z,64.70
2018-02-23T23:49:34.893Z,65.30
2018-02-23T23:52:01.161Z,65.10
2018-02-23T23:54:27.522Z,65.30
2018-02-23T23:56:53.784Z,65.10
2018-02-23T23:59:20.054Z,65.10
